createdAt,value
2022-11-07T00:00:27.698Z,46.45
2022-11-07T00:02:54.107Z,51.03
2022-11-07T00:05:20.687Z,50.05
2022-11-07T00:07:47.066Z,46.72
2022-11-07T00:10:13.496Z,53.22
2022-11-07T00:12:39.805Z,54.92
2022-11-07T00:15:06.561Z,49.58
2022-11-07T00:17:32.968Z,50.67
2022-11-07T00:19:59.364Z,47.72
2022-11-07T00:22:25.937Z,50.42
2022-11-07T00:24:52.504Z,49.88
2022-11-07T00:27:18.963Z,50.70
2022-11-07T00:29:45.493Z,51.53
2022-11-07T00:32:11.832Z,50.65
2022-11-07T00:34:38.229Z,49.70
2022-11-07T00:37:04.605Z,51.78
2022-11-07T00:39:30.972Z,49.72
2022-11-07T00:41:57.305Z,51.70
2022-11-07T00:44:23.626Z,51.08
2022-11-07T00:46:49.942Z,51.63
2022-11-07T00:49:16.332Z,50.67
2022-11-07T00:51:42.765Z,52.85
2022-11-07T00:54:09.121Z,48.38
2022-11-07T00:56:35.629Z,52.10
2022-11-07T00:59:02.042Z,52.72
2022-11-07T01:01:31.385Z,50.78
2022-11-07T01:04:16.833Z,47.97
2022-11-07T01:06:45.247Z,50.10
2022-11-07T01:09:18.513Z,48.88
2022-11-07T01:11:45.951Z,46.40
2022-11-07T01:14:16.336Z,48.83
2022-11-07T01:16:42.925Z,45.45
2022-11-07T01:19:09.832Z,47.38
2022-11-07T01:21:41.106Z,49.97
2022-11-07T01:24:08.928Z,51.40
2022-11-07T01:26:37.412Z,52.50
2022-11-07T01:29:04.312Z,53.65
2022-11-07T01:31:33.535Z,56.45
2022-11-07T01:34:00.742Z,57.72
2022-11-07T01:36:27.729Z,58.38
2022-11-07T01:38:54.663Z,56.95
2022-11-07T01:41:25.394Z,59.10
2022-11-07T01:43:56.125Z,60.15
2022-11-07T01:46:30.586Z,56.70
2022-11-07T01:49:12.776Z,56.83
2022-11-07T01:51:43.844Z,59.42
2022-11-07T01:54:13.163Z,63.45
2022-11-07T01:56:43.105Z,61.63
2022-11-07T01:59:14.031Z,62.05
2022-11-07T02:01:41.339Z,62.45
2022-11-07T02:04:09.371Z,61.58
2022-11-07T02:06:47.855Z,63.35
2022-11-07T02:09:14.673Z,62.45
2022-11-07T02:11:41.085Z,59.97
2022-11-07T02:14:07.720Z,59.47
2022-11-07T02:16:37.173Z,64.30
2022-11-07T02:19:10.663Z,63.55
2022-11-07T02:21:45.973Z,65.18
2022-11-07T02:24:38.522Z,64.20
2022-11-07T02:27:11.434Z,62.70
2022-11-07T02:29:40.170Z,60.83
2022-11-07T02:32:09.129Z,66.20
2022-11-07T02:34:35.547Z,64.07
2022-11-07T02:37:05.106Z,64.00
2022-11-07T02:39:31.491Z,59.83
2022-11-07T02:42:00.826Z,60.78
2022-11-07T02:44:29.473Z,58.22
2022-11-07T02:46:56.599Z,61.88
2022-11-07T02:49:22.984Z,64.60
2022-11-07T02:51:49.284Z,60.30
2022-11-07T02:54:15.586Z,59.03
2022-11-07T02:56:41.957Z,62.45
2022-11-07T02:59:08.252Z,64.68
2022-11-07T03:01:34.696Z,62.55
2022-11-07T03:04:01.092Z,62.63
2022-11-07T03:06:27.449Z,62.30
2022-11-07T03:08:53.820Z,61.08
2022-11-07T03:11:20.530Z,63.83
2022-11-07T03:13:48.229Z,61.80
2022-11-07T03:16:15.749Z,58.90
2022-11-07T03:18:42.183Z,56.28
2022-11-07T03:21:08.602Z,62.85
2022-11-07T03:23:36.127Z,62.92
2022-11-07T03:26:03.527Z,63.33
2022-11-07T03:28:30.030Z,61.53
2022-11-07T03:31:00.634Z,64.70
2022-11-07T03:33:28.882Z,65.43
2022-11-07T03:35:55.208Z,60.22
2022-11-07T03:38:21.525Z,59.75
2022-11-07T03:40:47.934Z,57.85
2022-11-07T03:43:14.636Z,62.28
2022-11-07T03:45:41.633Z,56.05
2022-11-07T03:48:07.993Z,57.33
2022-11-07T03:50:34.344Z,60.95
2022-11-07T03:53:00.691Z,57.65
2022-11-07T03:55:27.065Z,60.63
2022-11-07T03:57:53.419Z,61.22
2022-11-07T04:00:19.827Z,60.65
2022-11-07T04:02:46.443Z,61.22
2022-11-07T04:05:13.284Z,59.15
2022-11-07T04:07:39.694Z,49.63
2022-11-07T04:10:06.305Z,56.72
2022-11-07T04:12:51.126Z,58.53
2022-11-07T04:15:36.523Z,59.67
2022-11-07T04:18:02.921Z,62.45
2022-11-07T04:20:29.433Z,61.58
2022-11-07T04:22:55.768Z,57.40
2022-11-07T04:25:42.025Z,60.72
2022-11-07T04:28:08.413Z,53.40
2022-11-07T04:30:34.944Z,51.95
2022-11-07T04:33:02.388Z,57.42
2022-11-07T04:35:31.511Z,53.08
2022-11-07T04:37:59.042Z,52.80
2022-11-07T04:40:25.743Z,53.83
2022-11-07T04:42:52.200Z,53.97
2022-11-07T04:45:18.730Z,53.75
2022-11-07T04:47:45.558Z,51.47
2022-11-07T04:50:14.536Z,48.97
2022-11-07T04:52:40.970Z,52.45
2022-11-07T04:55:08.782Z,47.92
2022-11-07T04:57:35.117Z,48.83
2022-11-07T05:00:02.475Z,51.53
2022-11-07T05:02:29.020Z,48.72
2022-11-07T05:04:55.474Z,51.67
2022-11-07T05:07:22.001Z,47.22
2022-11-07T05:09:48.362Z,47.53
2022-11-07T05:12:14.886Z,45.33
2022-11-07T05:14:41.351Z,47.90
2022-11-07T05:17:07.761Z,50.92
2022-11-07T05:19:34.267Z,45.10
2022-11-07T05:22:19.380Z,44.80
2022-11-07T05:24:45.760Z,48.13
2022-11-07T05:27:19.492Z,46.17
2022-11-07T05:29:45.922Z,44.03
2022-11-07T05:32:12.653Z,46.38
2022-11-07T05:34:39.200Z,45.17
2022-11-07T05:37:09.532Z,42.80
2022-11-07T05:39:36.679Z,44.53
2022-11-07T05:42:04.031Z,42.88
2022-11-07T05:44:31.200Z,41.78
2022-11-07T05:46:58.102Z,43.78
2022-11-07T05:49:24.921Z,41.83
2022-11-07T05:51:51.893Z,41.72
2022-11-07T05:54:18.268Z,43.50
2022-11-07T05:56:44.851Z,41.90
2022-11-07T05:59:11.373Z,40.38
2022-11-07T06:01:37.943Z,40.35
2022-11-07T06:04:05.382Z,45.97
2022-11-07T06:06:31.781Z,43.22
2022-11-07T06:08:58.425Z,43.67
2022-11-07T06:11:24.824Z,45.92
2022-11-07T06:13:54.038Z,42.22
2022-11-07T06:16:20.454Z,43.78
2022-11-07T06:18:46.807Z,44.58
2022-11-07T06:21:13.926Z,41.63
2022-11-07T06:23:40.351Z,42.20
2022-11-07T06:26:07.006Z,42.65
2022-11-07T06:28:33.449Z,41.17
2022-11-07T06:31:03.851Z,43.15
2022-11-07T06:33:30.217Z,40.10
2022-11-07T06:36:08.329Z,44.53
2022-11-07T06:38:35.301Z,46.45
2022-11-07T06:41:10.854Z,43.00
2022-11-07T06:43:37.797Z,41.75
2022-11-07T06:46:07.000Z,42.35
2022-11-07T06:48:33.874Z,47.25
2022-11-07T06:51:02.006Z,46.38
2022-11-07T06:53:28.855Z,48.50
2022-11-07T06:55:55.974Z,45.78
2022-11-07T06:58:22.888Z,48.78
2022-11-07T07:00:49.249Z,43.60
2022-11-07T07:03:15.857Z,49.85
2022-11-07T07:05:42.770Z,45.13
2022-11-07T07:08:11.144Z,45.42
2022-11-07T07:10:45.111Z,45.28
2022-11-07T07:13:14.689Z,46.45
2022-11-07T07:15:51.110Z,43.10
2022-11-07T07:18:18.111Z,48.83
2022-11-07T07:20:45.223Z,46.92
2022-11-07T07:23:11.542Z,45.10
2022-11-07T07:25:37.860Z,44.90
2022-11-07T07:28:04.178Z,43.10
2022-11-07T07:30:30.570Z,44.95
2022-11-07T07:32:56.981Z,43.60
2022-11-07T07:35:23.269Z,46.90
2022-11-07T07:37:53.089Z,45.80
2022-11-07T07:40:20.592Z,43.30
2022-11-07T07:42:47.026Z,41.20
2022-11-07T07:45:14.854Z,38.03
2022-11-07T07:47:41.730Z,41.40
2022-11-07T07:50:10.652Z,41.95
2022-11-07T07:52:37.048Z,44.38
2022-11-07T07:55:03.854Z,42.30
2022-11-07T07:57:30.181Z,42.90
2022-11-07T07:59:56.932Z,39.33
2022-11-07T08:02:23.306Z,41.47
2022-11-07T08:04:49.716Z,41.67
2022-11-07T08:07:16.246Z,41.10
2022-11-07T08:09:42.565Z,48.30
2022-11-07T08:12:09.091Z,43.60
2022-11-07T08:14:35.551Z,45.50
2022-11-07T08:17:02.360Z,48.78
2022-11-07T08:19:28.672Z,40.72
2022-11-07T08:21:55.111Z,47.90
2022-11-07T08:24:21.423Z,45.78
2022-11-07T08:26:47.712Z,45.38
2022-11-07T08:29:14.055Z,43.97
2022-11-07T08:31:40.468Z,44.45
2022-11-07T08:34:06.853Z,44.45
2022-11-07T08:36:33.668Z,47.88
2022-11-07T08:39:00.010Z,45.70
2022-11-07T08:41:26.397Z,43.58
2022-11-07T08:43:52.736Z,43.17
2022-11-07T08:46:19.081Z,39.45
2022-11-07T08:48:45.413Z,40.17
2022-11-07T08:51:11.714Z,42.33
2022-11-07T08:53:38.078Z,40.65
2022-11-07T08:56:06.542Z,44.58
2022-11-07T08:58:33.681Z,42.78
2022-11-07T09:01:00.851Z,43.63
2022-11-07T09:06:13.749Z,44.47
2022-11-07T09:08:46.717Z,47.38
2022-11-07T09:11:15.510Z,44.60
2022-11-07T09:13:41.962Z,41.88
2022-11-07T09:16:08.266Z,46.58
2022-11-07T09:18:34.634Z,51.60
2022-11-07T09:21:00.988Z,51.00
2022-11-07T09:23:27.789Z,53.83
2022-11-07T09:25:54.251Z,50.28
2022-11-07T09:28:20.595Z,52.47
2022-11-07T09:30:46.952Z,57.88
2022-11-07T09:33:13.594Z,59.72
2022-11-07T09:35:40.102Z,62.83
2022-11-07T09:38:06.404Z,63.95
2022-11-07T09:41:05.276Z,73.03
2022-11-07T09:43:49.669Z,66.43
2022-11-07T09:46:43.037Z,63.05
2022-11-07T09:49:21.793Z,61.45
2022-11-07T09:51:56.512Z,58.28
2022-11-07T09:54:27.779Z,60.10
2022-11-07T09:56:57.926Z,61.17
2022-11-07T09:59:29.761Z,58.90
2022-11-07T10:01:56.206Z,62.13
2022-11-07T10:04:26.102Z,57.70
2022-11-07T10:07:00.144Z,51.72
2022-11-07T10:09:52.590Z,54.42
2022-11-07T10:12:40.434Z,52.08
2022-11-07T10:15:26.709Z,53.80
2022-11-07T10:18:16.368Z,50.58
2022-11-07T10:21:36.361Z,54.35
2022-11-07T10:24:23.122Z,56.58
2022-11-07T10:26:49.488Z,56.60
2022-11-07T10:29:21.598Z,55.72
2022-11-07T10:31:56.030Z,53.53
2022-11-07T10:34:37.726Z,52.08
2022-11-07T10:37:04.583Z,52.70
2022-11-07T10:39:32.146Z,52.53
2022-11-07T10:42:09.315Z,53.45
2022-11-07T10:44:38.382Z,58.67
2022-11-07T10:47:18.152Z,65.35
2022-11-07T10:50:16.849Z,47.53
2022-11-07T10:52:55.709Z,49.00
2022-11-07T10:55:22.837Z,34.63
2022-11-07T10:58:05.708Z,34.15
2022-11-07T11:00:34.334Z,34.45
2022-11-07T11:03:00.729Z,37.25
2022-11-07T11:05:43.344Z,34.50
2022-11-07T11:08:21.087Z,33.53
2022-11-07T11:10:48.278Z,35.20
2022-11-07T11:13:32.984Z,34.53
2022-11-07T11:18:34.533Z,32.42
2022-11-07T11:21:03.057Z,36.72
2022-11-07T11:23:31.766Z,35.90
2022-11-07T11:26:01.029Z,34.47
2022-11-07T11:28:36.760Z,33.85
2022-11-07T11:31:08.473Z,34.50
2022-11-07T11:33:42.242Z,36.97
2022-11-07T11:36:25.189Z,36.13
2022-11-07T11:38:54.545Z,32.67
2022-11-07T11:41:37.893Z,34.53
2022-11-07T11:44:23.543Z,33.55
2022-11-07T11:47:02.268Z,32.65
2022-11-07T11:49:30.522Z,33.15
2022-11-07T11:52:03.388Z,36.13
2022-11-07T11:54:29.707Z,35.20
2022-11-07T11:57:01.085Z,36.55
2022-11-07T11:59:45.091Z,35.20
2022-11-07T12:02:17.488Z,34.60
2022-11-07T12:04:55.960Z,33.83
2022-11-07T12:07:58.951Z,34.95
2022-11-07T12:10:27.963Z,33.63
2022-11-07T12:13:06.497Z,36.03
2022-11-07T12:15:40.968Z,36.03
2022-11-07T12:18:24.740Z,36.38
2022-11-07T12:21:05.520Z,34.20
2022-11-07T12:23:49.881Z,37.40
2022-11-07T12:26:35.832Z,33.97
2022-11-07T12:29:22.791Z,38.70
2022-11-07T12:32:19.826Z,37.47
2022-11-07T12:35:15.270Z,37.33
2022-11-07T12:38:10.949Z,36.15
2022-11-07T12:40:59.983Z,34.63
2022-11-07T12:43:42.029Z,35.65
2022-11-07T12:46:19.132Z,35.83
2022-11-07T12:49:00.016Z,35.55
2022-11-07T12:51:54.300Z,34.63
2022-11-07T12:54:39.513Z,35.47
2022-11-07T12:57:20.992Z,38.92
2022-11-07T12:59:52.188Z,35.55
2022-11-07T13:02:30.372Z,36.13
2022-11-07T13:05:15.360Z,37.47
2022-11-07T13:07:57.119Z,38.97
2022-11-07T13:10:34.963Z,35.05
2022-11-07T13:13:05.038Z,33.58
2022-11-07T13:15:53.788Z,34.40
2022-11-07T13:18:27.934Z,32.03
2022-11-07T13:21:01.221Z,34.80
2022-11-07T13:23:28.633Z,35.20
2022-11-07T13:26:14.842Z,36.40
2022-11-07T13:28:56.397Z,36.08
2022-11-07T13:31:45.461Z,31.77
2022-11-07T13:34:17.994Z,29.95
2022-11-07T13:36:47.017Z,32.22
2022-11-07T13:39:14.726Z,32.10
2022-11-07T13:41:44.374Z,34.15
2022-11-07T13:44:17.208Z,32.08
2022-11-07T13:46:49.137Z,31.75
2022-11-07T13:49:26.845Z,31.20
2022-11-07T13:51:56.477Z,29.75
2022-11-07T13:54:28.598Z,30.20
2022-11-07T13:57:05.085Z,29.75
2022-11-07T13:59:43.883Z,29.42
2022-11-07T14:02:30.317Z,30.27
2022-11-07T14:05:20.804Z,30.38
2022-11-07T14:08:04.726Z,30.15
2022-11-07T14:10:38.696Z,30.98
2022-11-07T14:13:07.928Z,33.95
2022-11-07T14:15:36.048Z,32.10
2022-11-07T14:18:03.635Z,34.05
2022-11-07T14:20:30.250Z,32.60
2022-11-07T14:23:00.538Z,33.30
2022-11-07T14:25:32.604Z,31.48
2022-11-07T14:28:00.146Z,32.33
2022-11-07T14:30:29.108Z,33.40
2022-11-07T14:32:58.708Z,34.38
2022-11-07T14:35:35.007Z,30.90
2022-11-07T14:38:15.114Z,31.88
2022-11-07T14:40:42.571Z,29.65
2022-11-07T14:43:15.538Z,30.67
2022-11-07T14:46:11.398Z,30.58
2022-11-07T14:48:32.220Z,31.95
2022-11-07T14:50:59.616Z,29.75
2022-11-07T14:53:32.086Z,29.00
2022-11-07T14:56:03.678Z,32.83
2022-11-07T14:58:31.383Z,31.55
2022-11-07T15:01:10.817Z,31.55
2022-11-07T15:03:49.813Z,32.25
2022-11-07T15:06:28.168Z,32.42
2022-11-07T15:08:57.501Z,30.63
2022-11-07T15:11:36.165Z,32.95
2022-11-07T15:14:05.897Z,30.92
2022-11-07T15:16:37.388Z,32.90
2022-11-07T15:19:06.078Z,31.77
2022-11-07T15:21:37.220Z,33.33
2022-11-07T15:24:34.828Z,34.10
2022-11-07T15:27:16.430Z,32.35
2022-11-07T15:29:57.883Z,32.45
2022-11-07T15:32:28.456Z,30.55
2022-11-07T15:35:23.042Z,32.88
2022-11-07T15:37:57.470Z,33.38
2022-11-07T15:40:26.346Z,31.23
2022-11-07T15:42:52.989Z,32.47
2022-11-07T15:45:20.264Z,31.48
2022-11-07T15:47:47.093Z,33.50
2022-11-07T15:50:20.864Z,33.83
2022-11-07T15:52:48.608Z,32.65
2022-11-07T15:55:17.628Z,32.15
2022-11-07T15:57:46.880Z,31.17
2022-11-07T16:00:19.316Z,31.33
2022-11-07T16:02:46.242Z,32.03
2022-11-07T16:05:13.997Z,32.10
2022-11-07T16:07:42.545Z,31.73
2022-11-07T16:10:24.934Z,31.85
2022-11-07T16:12:52.011Z,30.52
2022-11-07T16:15:21.429Z,32.67
2022-11-07T16:17:48.297Z,32.65
2022-11-07T16:20:17.106Z,33.45
2022-11-07T16:22:45.120Z,33.28
2022-11-07T16:25:21.323Z,34.80
2022-11-07T16:27:59.035Z,31.42
2022-11-07T16:30:25.682Z,33.97
2022-11-07T16:32:52.035Z,32.88
2022-11-07T16:35:18.352Z,34.33
2022-11-07T16:37:44.660Z,34.17
2022-11-07T16:40:14.132Z,33.65
2022-11-07T16:42:40.586Z,33.22
2022-11-07T16:45:07.705Z,34.08
2022-11-07T16:47:39.337Z,37.55
2022-11-07T16:50:06.618Z,36.38
2022-11-07T16:52:33.563Z,36.60
2022-11-07T16:54:59.953Z,35.03
2022-11-07T16:57:26.332Z,36.55
2022-11-07T16:59:52.733Z,35.25
2022-11-07T17:02:24.821Z,36.17
2022-11-07T17:04:53.389Z,38.13
2022-11-07T17:07:22.717Z,36.83
2022-11-07T17:09:49.603Z,38.65
2022-11-07T17:12:24.814Z,37.17
2022-11-07T17:14:51.720Z,37.22
2022-11-07T17:17:19.054Z,36.75
2022-11-07T17:19:45.567Z,38.05
2022-11-07T17:22:13.464Z,39.47
2022-11-07T17:24:40.361Z,37.50
2022-11-07T17:27:25.424Z,37.75
2022-11-07T17:29:53.318Z,38.90
2022-11-07T17:32:20.317Z,37.53
2022-11-07T17:34:54.989Z,38.33
2022-11-07T17:37:33.118Z,37.45
2022-11-07T17:39:59.412Z,38.63
2022-11-07T17:42:25.728Z,38.35
2022-11-07T17:44:52.066Z,38.38
2022-11-07T17:47:28.836Z,37.70
2022-11-07T17:49:55.668Z,38.05
2022-11-07T17:52:22.308Z,38.30
2022-11-07T17:54:48.797Z,40.88
2022-11-07T17:57:15.190Z,37.22
2022-11-07T17:59:45.740Z,40.55
2022-11-07T18:02:18.622Z,37.33
2022-11-07T18:04:45.997Z,35.92
2022-11-07T18:07:12.790Z,37.78
2022-11-07T18:09:42.915Z,37.47
2022-11-07T18:12:10.558Z,38.65
2022-11-07T18:14:37.390Z,37.63
2022-11-07T18:17:04.327Z,37.90
2022-11-07T18:19:30.871Z,38.63
2022-11-07T18:21:57.192Z,40.17
2022-11-07T18:24:24.189Z,40.90
2022-11-07T18:26:51.782Z,37.80
2022-11-07T18:29:18.698Z,37.90
2022-11-07T18:31:47.291Z,39.17
2022-11-07T18:34:14.273Z,37.60
2022-11-07T18:36:42.340Z,40.22
2022-11-07T18:39:15.515Z,36.70
2022-11-07T18:41:42.347Z,37.80
2022-11-07T18:44:10.335Z,37.70
2022-11-07T18:46:37.263Z,38.83
2022-11-07T18:49:05.118Z,37.30
2022-11-07T18:51:32.477Z,39.05
2022-11-07T18:54:01.484Z,36.67
2022-11-07T18:56:28.282Z,37.20
2022-11-07T18:58:55.682Z,39.15
2022-11-07T19:01:26.449Z,38.70
2022-11-07T19:03:53.701Z,37.50
2022-11-07T19:06:22.089Z,40.13
2022-11-07T19:08:49.004Z,38.40
2022-11-07T19:11:18.159Z,38.60
2022-11-07T19:13:45.600Z,39.90
2022-11-07T19:16:16.963Z,39.83
2022-11-07T19:18:49.151Z,39.63
2022-11-07T19:21:19.690Z,39.60
2022-11-07T19:23:46.990Z,38.80
2022-11-07T19:26:13.852Z,40.83
2022-11-07T19:28:40.818Z,39.00
2022-11-07T19:31:09.877Z,41.40
2022-11-07T19:33:36.801Z,40.20
2022-11-07T19:36:06.636Z,37.92
2022-11-07T19:38:33.716Z,42.65
2022-11-07T19:41:05.161Z,40.33
2022-11-07T19:43:31.885Z,37.05
2022-11-07T19:45:59.117Z,39.85
2022-11-07T19:48:25.633Z,39.38
2022-11-07T19:50:52.065Z,34.55
2022-11-07T19:53:18.802Z,36.35
2022-11-07T19:55:45.323Z,35.28
2022-11-07T19:58:11.662Z,34.70
2022-11-07T20:00:38.110Z,33.75
2022-11-07T20:03:09.665Z,36.60
2022-11-07T20:05:43.809Z,34.25
2022-11-07T20:08:15.831Z,35.38
2022-11-07T20:10:46.681Z,33.85
2022-11-07T20:13:13.031Z,34.22
2022-11-07T20:15:39.819Z,32.55
2022-11-07T20:18:06.289Z,31.45
2022-11-07T20:20:32.604Z,33.05
2022-11-07T20:23:00.230Z,33.33
2022-11-07T20:25:26.716Z,31.83
2022-11-07T20:27:53.052Z,33.40
2022-11-07T20:30:19.729Z,34.15
2022-11-07T20:32:46.578Z,32.78
2022-11-07T20:35:12.899Z,33.35
2022-11-07T20:37:39.314Z,33.40
2022-11-07T20:40:06.322Z,31.27
2022-11-07T20:42:32.742Z,31.33
2022-11-07T20:44:59.136Z,32.17
2022-11-07T20:47:25.510Z,31.65
2022-11-07T20:49:51.847Z,33.85
2022-11-07T20:52:18.348Z,31.45
2022-11-07T20:54:44.766Z,31.45
2022-11-07T20:57:11.122Z,31.88
2022-11-07T20:59:37.595Z,32.67
2022-11-07T21:02:04.353Z,31.38
2022-11-07T21:04:44.412Z,31.75
2022-11-07T21:07:19.537Z,33.30
2022-11-07T21:09:46.262Z,33.35
2022-11-07T21:12:13.088Z,33.58
2022-11-07T21:14:41.561Z,34.72
2022-11-07T21:17:09.067Z,35.10
2022-11-07T21:19:35.365Z,33.15
2022-11-07T21:22:01.676Z,35.78
2022-11-07T21:24:31.630Z,34.03
2022-11-07T21:26:58.524Z,37.05
2022-11-07T21:29:29.453Z,35.40
2022-11-07T21:31:56.025Z,36.72
2022-11-07T21:34:22.349Z,35.60
2022-11-07T21:36:48.686Z,33.30
2022-11-07T21:39:16.194Z,36.65
2022-11-07T21:41:42.600Z,32.80
2022-11-07T21:44:11.163Z,36.63
2022-11-07T21:46:37.756Z,33.63
2022-11-07T21:49:06.014Z,36.15
2022-11-07T21:51:34.222Z,36.13
2022-11-07T21:54:01.433Z,36.13
2022-11-07T21:56:30.369Z,36.95
2022-11-07T21:59:00.137Z,37.72
2022-11-07T22:01:28.017Z,37.95
2022-11-07T22:04:11.188Z,37.53
2022-11-07T22:06:40.870Z,37.80
2022-11-07T22:09:08.923Z,39.20
2022-11-07T22:11:35.511Z,40.30
2022-11-07T22:14:02.579Z,37.90
2022-11-07T22:16:29.188Z,40.55
2022-11-07T22:18:55.647Z,38.58
2022-11-07T22:21:23.306Z,38.53
2022-11-07T22:23:50.480Z,38.75
2022-11-07T22:26:20.151Z,37.65
2022-11-07T22:28:47.368Z,40.53
2022-11-07T22:31:32.043Z,40.15
2022-11-07T22:36:25.898Z,35.05
2022-11-07T22:38:52.282Z,40.17
2022-11-07T22:41:24.048Z,38.65
2022-11-07T22:43:51.137Z,41.00
2022-11-07T22:46:20.572Z,40.00
2022-11-07T22:48:48.622Z,39.97
2022-11-07T22:51:18.061Z,41.83
2022-11-07T22:53:44.392Z,41.58
2022-11-07T22:56:13.205Z,41.08
2022-11-07T22:58:40.157Z,38.75
2022-11-07T23:01:13.300Z,40.78
2022-11-07T23:03:39.630Z,41.10
2022-11-07T23:06:06.071Z,42.78
2022-11-07T23:08:36.269Z,41.58
2022-11-07T23:14:00.266Z,41.28
2022-11-07T23:16:37.372Z,40.95
2022-11-07T23:19:06.757Z,43.13
2022-11-07T23:21:33.726Z,42.47
2022-11-07T23:24:00.904Z,41.90
2022-11-07T23:26:35.218Z,43.40
2022-11-07T23:31:37.220Z,40.33
2022-11-07T23:34:04.040Z,42.17
2022-11-07T23:36:30.359Z,45.85
2022-11-07T23:38:56.786Z,43.20
2022-11-07T23:41:23.114Z,40.83
2022-11-07T23:43:52.444Z,41.95
2022-11-07T23:46:37.768Z,45.15
2022-11-07T23:49:22.446Z,42.58
2022-11-07T23:54:33.581Z,39.92
2022-11-07T23:57:00.583Z,43.58
2022-11-07T23:59:45.714Z,42.20
